sensor_id;sensor_type;location;lat;lon;timestamp;pressure;altitude;pressure_sealevel;temperature;humidity
49779;BME280;36217;60.232;24.776;2023-02-01T00:00:08;98822.44;;;0.22;100.00
49779;BME280;36217;60.232;24.776;2023-02-01T00:02:35;98824.13;;;0.49;100.00
49779;BME280;36217;60.232;24.776;2023-02-01T00:05:02;98832.36;;;0.45;100.00
49779;BME280;36217;60.232;24.776;2023-02-01T00:07:29;98832.93;;;0.51;100.00
49779;BME280;36217;60.232;24.776;2023-02-01T00:09:56;98833.09;;;0.27;100.00
49779;BME280;36217;60.232;24.776;2023-02-01T00:12:24;98835.92;;;-0.00;100.00
49779;BME280;36217;60.232;24.776;2023-02-01T00:14:51;98830.92;;;0.45;100.00
49779;BME280;36217;60.232;24.776;2023-02-01T00:17:18;98826.55;;;0.43;100.00
49779;BME280;36217;60.232;24.776;2023-02-01T00:19:45;98824.78;;;0.45;100.00
49779;BME280;36217;60.232;24.776;2023-02-01T00:22:12;98825.73;;;0.49;100.00
49779;BME280;36217;60.232;24.776;2023-02-01T00:24:40;98828.47;;;0.43;100.00
49779;BME280;36217;60.232;24.776;2023-02-01T00:27:07;98827.96;;;0.34;100.00
49779;BME280;36217;60.232;24.776;2023-02-01T00:29:34;98832.22;;;0.15;100.00
49779;BME280;36217;60.232;24.776;2023-02-01T00:32:01;98829.33;;;0.17;100.00
49779;BME280;36217;60.232;24.776;2023-02-01T00:34:28;98829.56;;;0.33;100.00
49779;BME280;36217;60.232;24.776;2023-02-01T00:36:56;98829.78;;;0.08;100.00
49779;BME280;36217;60.232;24.776;2023-02-01T00:39:23;98828.40;;;0.26;100.00
49779;BME280;36217;60.232;24.776;2023-02-01T00:41:50;98828.72;;;0.05;100.00
49779;BME280;36217;60.232;24.776;2023-02-01T00:44:17;98830.22;;;0.25;100.00
49779;BME280;36217;60.232;24.776;2023-02-01T00:46:44;98830.01;;;0.25;100.00
49779;BME280;36217;60.232;24.776;2023-02-01T00:49:11;98828.35;;;0.29;100.00
49779;BME280;36217;60.232;24.776;2023-02-01T00:51:39;98827.21;;;0.14;100.00
49779;BME280;36217;60.232;24.776;2023-02-01T00:54:06;98821.52;;;0.27;100.00
49779;BME280;36217;60.232;24.776;2023-02-01T00:56:33;98819.79;;;-0.05;100.00
49779;BME280;36217;60.232;24.776;2023-02-01T00:59:00;98818.55;;;-0.26;100.00
49779;BME280;36217;60.232;24.776;2023-02-01T01:01:28;98816.07;;;0.33;100.00
49779;BME280;36217;60.232;24.776;2023-02-01T01:03:56;98814.03;;;0.17;100.00
49779;BME280;36217;60.232;24.776;2023-02-01T01:06:27;98811.30;;;-0.01;100.00
49779;BME280;36217;60.232;24.776;2023-02-01T01:08:56;98808.31;;;0.01;100.00
49779;BME280;36217;60.232;24.776;2023-02-01T01:11:27;98808.85;;;-0.00;100.00
49779;BME280;36217;60.232;24.776;2023-02-01T01:13:55;98807.41;;;0.22;100.00
49779;BME280;36217;60.232;24.776;2023-02-01T01:16:25;98807.09;;;0.22;100.00
49779;BME280;36217;60.232;24.776;2023-02-01T01:18:53;98809.03;;;-0.09;100.00
49779;BME280;36217;60.232;24.776;2023-02-01T01:21:20;98812.69;;;0.19;100.00
49779;BME280;36217;60.232;24.776;2023-02-01T01:23:57;98814.46;;;0.16;100.00
49779;BME280;36217;60.232;24.776;2023-02-01T01:26:26;98812.40;;;0.06;100.00
49779;BME280;36217;60.232;24.776;2023-02-01T01:28:55;98812.81;;;-0.08;100.00
49779;BME280;36217;60.232;24.776;2023-02-01T01:31:22;98813.32;;;-0.02;100.00
49779;BME280;36217;60.232;24.776;2023-02-01T01:33:50;98818.12;;;0.00;100.00
49779;BME280;36217;60.232;24.776;2023-02-01T01:36:17;98819.72;;;-0.01;100.00
49779;BME280;36217;60.232;24.776;2023-02-01T01:38:44;98820.62;;;0.02;100.00
49779;BME280;36217;60.232;24.776;2023-02-01T01:41:15;98822.77;;;-0.30;100.00
49779;BME280;36217;60.232;24.776;2023-02-01T01:43:53;98826.13;;;-0.10;100.00
49779;BME280;36217;60.232;24.776;2023-02-01T01:46:22;98830.12;;;-0.05;100.00
49779;BME280;36217;60.232;24.776;2023-02-01T01:48:53;98828.79;;;0.21;100.00
49779;BME280;36217;60.232;24.776;2023-02-01T01:51:24;98831.22;;;-0.24;100.00
49779;BME280;36217;60.232;24.776;2023-02-01T01:53:58;98830.83;;;-0.16;100.00
49779;BME280;36217;60.232;24.776;2023-02-01T01:56:27;98832.55;;;-0.24;100.00
49779;BME280;36217;60.232;24.776;2023-02-01T01:58:56;98831.38;;;-0.25;100.00
49779;BME280;36217;60.232;24.776;2023-02-01T02:01:24;98832.13;;;-0.33;100.00
49779;BME280;36217;60.232;24.776;2023-02-01T02:03:51;98826.98;;;-0.48;100.00
49779;BME280;36217;60.232;24.776;2023-02-01T02:06:28;98826.02;;;-0.44;100.00
49779;BME280;36217;60.232;24.776;2023-02-01T02:09:07;98820.05;;;-0.49;100.00
49779;BME280;36217;60.232;24.776;2023-02-01T02:11:34;98820.47;;;-0.41;100.00
49779;BME280;36217;60.232;24.776;2023-02-01T02:14:02;98817.92;;;-0.49;100.00
49779;BME280;36217;60.232;24.776;2023-02-01T02:16:46;98820.05;;;-0.46;100.00
49779;BME280;36217;60.232;24.776;2023-02-01T02:19:38;98822.78;;;-0.56;100.00
49779;BME280;36217;60.232;24.776;2023-02-01T02:22:52;98824.97;;;-0.35;100.00
49779;BME280;36217;60.232;24.776;2023-02-01T02:25:38;98827.31;;;-0.38;100.00
49779;BME280;36217;60.232;24.776;2023-02-01T02:28:28;98827.32;;;-0.70;100.00
49779;BME280;36217;60.232;24.776;2023-02-01T02:31:13;98829.55;;;-0.70;100.00
49779;BME280;36217;60.232;24.776;2023-02-01T02:33:57;98825.13;;;-0.39;100.00
49779;BME280;36217;60.232;24.776;2023-02-01T02:36:34;98822.79;;;-0.79;100.00
49779;BME280;36217;60.232;24.776;2023-02-01T02:39:07;98821.94;;;-0.78;100.00
49779;BME280;36217;60.232;24.776;2023-02-01T02:41:44;98826.84;;;-0.76;100.00
49779;BME280;36217;60.232;24.776;2023-02-01T02:44:22;98823.43;;;-0.76;100.00
49779;BME280;36217;60.232;24.776;2023-02-01T02:46:52;98825.08;;;-0.53;100.00
49779;BME280;36217;60.232;24.776;2023-02-01T02:49:28;98826.95;;;-0.56;100.00
49779;BME280;36217;60.232;24.776;2023-02-01T02:52:04;98824.34;;;-0.84;100.00
49779;BME280;36217;60.232;24.776;2023-02-01T02:54:36;98825.62;;;-0.92;100.00
49779;BME280;36217;60.232;24.776;2023-02-01T02:57:07;98829.35;;;-0.73;100.00
49779;BME280;36217;60.232;24.776;2023-02-01T02:59:37;98829.08;;;-0.94;100.00
49779;BME280;36217;60.232;24.776;2023-02-01T03:02:05;98826.31;;;-0.99;100.00
49779;BME280;36217;60.232;24.776;2023-02-01T03:04:32;98826.84;;;-1.04;100.00
49779;BME280;36217;60.232;24.776;2023-02-01T03:07:11;98825.83;;;-1.03;100.00
49779;BME280;36217;60.232;24.776;2023-02-01T03:09:40;98830.25;;;-0.83;100.00
49779;BME280;36217;60.232;24.776;2023-02-01T03:12:11;98829.61;;;-0.87;100.00
49779;BME280;36217;60.232;24.776;2023-02-01T03:14:41;98832.01;;;-1.12;100.00
49779;BME280;36217;60.232;24.776;2023-02-01T03:17:14;98832.49;;;-0.64;100.00
49779;BME280;36217;60.232;24.776;2023-02-01T03:19:45;98834.30;;;-0.86;100.00
49779;BME280;36217;60.232;24.776;2023-02-01T03:22:15;98831.69;;;-0.81;100.00
49779;BME280;36217;60.232;24.776;2023-02-01T03:24:46;98832.11;;;-0.80;100.00
49779;BME280;36217;60.232;24.776;2023-02-01T03:27:17;98829.24;;;-0.93;100.00
49779;BME280;36217;60.232;24.776;2023-02-01T03:29:51;98833.50;;;-0.74;100.00
49779;BME280;36217;60.232;24.776;2023-02-01T03:32:21;98837.07;;;-0.98;100.00
49779;BME280;36217;60.232;24.776;2023-02-01T03:34:49;98835.90;;;-0.32;100.00
49779;BME280;36217;60.232;24.776;2023-02-01T03:37:22;98837.49;;;-0.56;100.00
49779;BME280;36217;60.232;24.776;2023-02-01T03:39:56;98842.45;;;-0.55;100.00
49779;BME280;36217;60.232;24.776;2023-02-01T03:42:30;98845.38;;;-0.84;100.00
49779;BME280;36217;60.232;24.776;2023-02-01T03:45:04;98843.14;;;-0.49;100.00
49779;BME280;36217;60.232;24.776;2023-02-01T03:47:36;98844.74;;;-0.77;100.00
49779;BME280;36217;60.232;24.776;2023-02-01T03:50:08;98844.84;;;-0.65;100.00
49779;BME280;36217;60.232;24.776;2023-02-01T03:52:41;98845.42;;;-0.34;100.00
49779;BME280;36217;60.232;24.776;2023-02-01T03:55:11;98847.29;;;-0.32;100.00
49779;BME280;36217;60.232;24.776;2023-02-01T03:57:44;98846.43;;;-0.58;100.00
49779;BME280;36217;60.232;24.776;2023-02-01T04:00:18;98843.39;;;-0.55;100.00
49779;BME280;36217;60.232;24.776;2023-02-01T04:02:46;98846.49;;;-0.35;100.00
49779;BME280;36217;60.232;24.776;2023-02-01T04:05:13;98846.80;;;-0.26;100.00
49779;BME280;36217;60.232;24.776;2023-02-01T04:07:40;98851.43;;;-0.46;100.00
49779;BME280;36217;60.232;24.776;2023-02-01T04:10:17;98854.78;;;-0.10;100.00
49779;BME280;36217;60.232;24.776;2023-02-01T04:12:44;98860.17;;;-0.42;100.00
49779;BME280;36217;60.232;24.776;2023-02-01T04:15:11;98861.39;;;-0.34;100.00
49779;BME280;36217;60.232;24.776;2023-02-01T04:17:38;98857.77;;;-0.39;100.00
49779;BME280;36217;60.232;24.776;2023-02-01T04:20:06;98855.85;;;-0.08;100.00
49779;BME280;36217;60.232;24.776;2023-02-01T04:22:34;98855.27;;;-0.21;100.00
49779;BME280;36217;60.232;24.776;2023-02-01T04:25:01;98853.88;;;-0.34;100.00
49779;BME280;36217;60.232;24.776;2023-02-01T04:27:28;98854.99;;;-0.34;100.00
49779;BME280;36217;60.232;24.776;2023-02-01T04:29:55;98857.13;;;-0.42;100.00
49779;BME280;36217;60.232;24.776;2023-02-01T04:32:23;98855.47;;;-0.35;100.00
49779;BME280;36217;60.232;24.776;2023-02-01T04:34:50;98857.07;;;-0.05;100.00
49779;BME280;36217;60.232;24.776;2023-02-01T04:37:17;98854.88;;;-0.30;100.00
49779;BME280;36217;60.232;24.776;2023-02-01T04:39:44;98855.58;;;-0.34;100.00
49779;BME280;36217;60.232;24.776;2023-02-01T04:42:11;98859.63;;;-0.31;100.00
49779;BME280;36217;60.232;24.776;2023-02-01T04:44:39;98858.72;;;-0.31;100.00
49779;BME280;36217;60.232;24.776;2023-02-01T04:47:16;98859.14;;;-0.24;100.00
49779;BME280;36217;60.232;24.776;2023-02-01T04:49:42;98860.95;;;-0.19;100.00
49779;BME280;36217;60.232;24.776;2023-02-01T04:52:10;98864.42;;;0.02;100.00
49779;BME280;36217;60.232;24.776;2023-02-01T04:54:37;98861.90;;;-0.16;100.00
49779;BME280;36217;60.232;24.776;2023-02-01T04:57:04;98863.99;;;-0.20;100.00
49779;BME280;36217;60.232;24.776;2023-02-01T04:59:31;98862.01;;;-0.15;100.00
49779;BME280;36217;60.232;24.776;2023-02-01T05:01:59;98863.56;;;-0.20;100.00
49779;BME280;36217;60.232;24.776;2023-02-01T05:04:26;98865.64;;;0.04;100.00
49779;BME280;36217;60.232;24.776;2023-02-01T05:06:53;98864.89;;;0.07;100.00
49779;BME280;36217;60.232;24.776;2023-02-01T05:09:20;98865.96;;;-0.21;100.00
49779;BME280;36217;60.232;24.776;2023-02-01T05:11:48;98866.49;;;0.08;100.00
49779;BME280;36217;60.232;24.776;2023-02-01T05:14:15;98865.10;;;-0.17;100.00
49779;BME280;36217;60.232;24.776;2023-02-01T05:16:42;98866.45;;;-0.27;100.00
49779;BME280;36217;60.232;24.776;2023-02-01T05:19:09;98870.18;;;-0.28;100.00
49779;BME280;36217;60.232;24.776;2023-02-01T05:21:36;98872.04;;;-0.22;100.00
49779;BME280;36217;60.232;24.776;2023-02-01T05:24:04;98871.93;;;0.04;100.00
49779;BME280;36217;60.232;24.776;2023-02-01T05:26:31;98874.61;;;-0.11;100.00
49779;BME280;36217;60.232;24.776;2023-02-01T05:28:58;98876.89;;;-0.31;100.00
49779;BME280;36217;60.232;24.776;2023-02-01T05:31:25;98879.19;;;0.13;100.00
49779;BME280;36217;60.232;24.776;2023-02-01T05:33:53;98878.93;;;-0.18;100.00
49779;BME280;36217;60.232;24.776;2023-02-01T05:36:20;98881.38;;;-0.23;100.00
49779;BME280;36217;60.232;24.776;2023-02-01T05:38:47;98884.52;;;-0.27;100.00
49779;BME280;36217;60.232;24.776;2023-02-01T05:41:14;98887.72;;;-0.44;100.00
49779;BME280;36217;60.232;24.776;2023-02-01T05:43:41;98889.85;;;-0.15;100.00
49779;BME280;36217;60.232;24.776;2023-02-01T05:46:09;98893.31;;;-0.25;100.00
49779;BME280;36217;60.232;24.776;2023-02-01T05:48:36;98899.44;;;-0.43;100.00
49779;BME280;36217;60.232;24.776;2023-02-01T05:51:03;98903.49;;;-0.47;100.00
49779;BME280;36217;60.232;24.776;2023-02-01T05:53:30;98904.66;;;-0.40;100.00
49779;BME280;36217;60.232;24.776;2023-02-01T05:55:57;98906.69;;;-0.19;100.00
49779;BME280;36217;60.232;24.776;2023-02-01T05:58:24;98906.53;;;-0.25;100.00
49779;BME280;36217;60.232;24.776;2023-02-01T06:00:52;98906.74;;;-0.21;100.00
49779;BME280;36217;60.232;24.776;2023-02-01T06:03:19;98910.15;;;-0.24;100.00
49779;BME280;36217;60.232;24.776;2023-02-01T06:05:47;98908.66;;;-0.35;100.00
49779;BME280;36217;60.232;24.776;2023-02-01T06:08:14;98906.58;;;-0.49;100.00
49779;BME280;36217;60.232;24.776;2023-02-01T06:10:41;98905.94;;;-0.32;100.00
49779;BME280;36217;60.232;24.776;2023-02-01T06:13:09;98905.41;;;-0.57;100.00
49779;BME280;36217;60.232;24.776;2023-02-01T06:15:36;98909.14;;;-0.23;100.00
49779;BME280;36217;60.232;24.776;2023-02-01T06:18:04;98909.67;;;-0.24;100.00
49779;BME280;36217;60.232;24.776;2023-02-01T06:20:30;98910.84;;;-0.47;100.00
49779;BME280;36217;60.232;24.776;2023-02-01T06:22:58;98917.50;;;-0.13;100.00
49779;BME280;36217;60.232;24.776;2023-02-01T06:25:25;98917.39;;;-0.51;100.00
49779;BME280;36217;60.232;24.776;2023-02-01T06:27:52;98919.90;;;-0.48;100.00
49779;BME280;36217;60.232;24.776;2023-02-01T06:30:19;98919.21;;;-0.43;100.00
49779;BME280;36217;60.232;24.776;2023-02-01T06:32:50;98924.06;;;-0.48;100.00
49779;BME280;36217;60.232;24.776;2023-02-01T06:35:17;98925.87;;;-0.43;100.00
49779;BME280;36217;60.232;24.776;2023-02-01T06:37:45;98928.00;;;-0.43;100.00
49779;BME280;36217;60.232;24.776;2023-02-01T06:40:12;98926.93;;;-0.18;100.00
49779;BME280;36217;60.232;24.776;2023-02-01T06:42:39;98923.52;;;-0.43;100.00
49779;BME280;36217;60.232;24.776;2023-02-01T06:45:07;98921.28;;;-0.49;100.00
49779;BME280;36217;60.232;24.776;2023-02-01T06:47:34;98920.38;;;-0.18;100.00
49779;BME280;36217;60.232;24.776;2023-02-01T06:50:01;98924.48;;;-0.40;100.00
49779;BME280;36217;60.232;24.776;2023-02-01T06:52:29;98924.43;;;-0.43;100.00
49779;BME280;36217;60.232;24.776;2023-02-01T06:54:56;98925.28;;;-0.38;100.00
49779;BME280;36217;60.232;24.776;2023-02-01T06:57:23;98930.51;;;0.90;100.00
49779;BME280;36217;60.232;24.776;2023-02-01T06:59:50;98929.58;;;0.98;100.00
49779;BME280;36217;60.232;24.776;2023-02-01T07:02:18;98934.04;;;0.63;100.00
49779;BME280;36217;60.232;24.776;2023-02-01T07:04:45;98934.08;;;0.37;100.00
49779;BME280;36217;60.232;24.776;2023-02-01T07:07:13;98940.18;;;0.15;100.00
49779;BME280;36217;60.232;24.776;2023-02-01T07:09:40;98937.63;;;0.01;100.00
49779;BME280;36217;60.232;24.776;2023-02-01T07:12:07;98933.80;;;-0.08;100.00
49779;BME280;36217;60.232;24.776;2023-02-01T07:14:35;98933.85;;;-0.07;100.00
49779;BME280;36217;60.232;24.776;2023-02-01T07:17:02;98936.10;;;-0.16;100.00
49779;BME280;36217;60.232;24.776;2023-02-01T07:19:29;98932.52;;;-0.36;100.00
49779;BME280;36217;60.232;24.776;2023-02-01T07:21:56;98935.99;;;-0.15;100.00
49779;BME280;36217;60.232;24.776;2023-02-01T07:24:24;98935.56;;;-0.20;100.00
49779;BME280;36217;60.232;24.776;2023-02-01T07:26:51;98937.59;;;-0.27;100.00
49779;BME280;36217;60.232;24.776;2023-02-01T07:29:18;98940.89;;;-0.19;100.00
49779;BME280;36217;60.232;24.776;2023-02-01T07:31:45;98940.84;;;-0.18;100.00
49779;BME280;36217;60.232;24.776;2023-02-01T07:34:12;98940.89;;;-0.27;100.00
49779;BME280;36217;60.232;24.776;2023-02-01T07:36:40;98941.96;;;-0.26;100.00
49779;BME280;36217;60.232;24.776;2023-02-01T07:39:07;98943.98;;;-0.14;100.00
49779;BME280;36217;60.232;24.776;2023-02-01T07:41:34;98946.06;;;-0.16;100.00
49779;BME280;36217;60.232;24.776;2023-02-01T07:44:01;98944.62;;;-0.15;100.00
49779;BME280;36217;60.232;24.776;2023-02-01T07:46:28;98946.59;;;0.22;100.00
49779;BME280;36217;60.232;24.776;2023-02-01T07:48:55;98947.07;;;-0.02;100.00
49779;BME280;36217;60.232;24.776;2023-02-01T07:51:23;98947.44;;;0.00;100.00
49779;BME280;36217;60.232;24.776;2023-02-01T07:53:50;98947.39;;;0.18;100.00
49779;BME280;36217;60.232;24.776;2023-02-01T07:56:19;98946.86;;;0.29;100.00
49779;BME280;36217;60.232;24.776;2023-02-01T07:58:48;98949.15;;;-0.04;100.00
49779;BME280;36217;60.232;24.776;2023-02-01T08:01:16;98951.01;;;0.01;100.00
49779;BME280;36217;60.232;24.776;2023-02-01T08:03:43;98954.53;;;-0.04;100.00
49779;BME280;36217;60.232;24.776;2023-02-01T08:06:10;98953.57;;;0.28;100.00
49779;BME280;36217;60.232;24.776;2023-02-01T08:08:38;98954.96;;;0.04;100.00
49779;BME280;36217;60.232;24.776;2023-02-01T08:11:06;98956.77;;;0.02;100.00
49779;BME280;36217;60.232;24.776;2023-02-01T08:13:34;98958.90;;;-0.15;100.00
49779;BME280;36217;60.232;24.776;2023-02-01T08:16:03;98961.35;;;0.08;100.00
49779;BME280;36217;60.232;24.776;2023-02-01T08:18:30;98963.91;;;0.10;100.00
49779;BME280;36217;60.232;24.776;2023-02-01T08:21:03;98965.35;;;0.18;100.00
49779;BME280;36217;60.232;24.776;2023-02-01T08:23:31;98965.40;;;0.19;100.00
49779;BME280;36217;60.232;24.776;2023-02-01T08:26:05;98971.69;;;0.41;100.00
49779;BME280;36217;60.232;24.776;2023-02-01T08:28:32;98971.16;;;-0.06;100.00
49779;BME280;36217;60.232;24.776;2023-02-01T08:31:04;98976.81;;;0.40;100.00
49779;BME280;36217;60.232;24.776;2023-02-01T08:33:32;98977.08;;;-0.11;100.00
49779;BME280;36217;60.232;24.776;2023-02-01T08:36:01;98979.58;;;0.15;100.00
49779;BME280;36217;60.232;24.776;2023-02-01T08:38:29;98979.80;;;0.18;100.00
49779;BME280;36217;60.232;24.776;2023-02-01T08:40:56;98980.12;;;0.43;100.00
49779;BME280;36217;60.232;24.776;2023-02-01T08:43:23;98980.38;;;0.24;100.00
49779;BME280;36217;60.232;24.776;2023-02-01T08:45:54;98979.85;;;0.21;100.00
49779;BME280;36217;60.232;24.776;2023-02-01T08:48:21;98981.98;;;0.27;100.00
49779;BME280;36217;60.232;24.776;2023-02-01T08:50:48;98979.26;;;0.20;100.00
49779;BME280;36217;60.232;24.776;2023-02-01T08:53:15;98982.08;;;0.28;100.00
49779;BME280;36217;60.232;24.776;2023-02-01T08:55:42;98978.94;;;0.00;100.00
49779;BME280;36217;60.232;24.776;2023-02-01T08:58:10;98975.68;;;0.31;100.00
49779;BME280;36217;60.232;24.776;2023-02-01T09:00:37;98977.76;;;0.37;100.00
49779;BME280;36217;60.232;24.776;2023-02-01T09:03:04;98980.05;;;0.34;100.00
49779;BME280;36217;60.232;24.776;2023-02-01T09:05:31;98980.75;;;0.09;100.00
49779;BME280;36217;60.232;24.776;2023-02-01T09:07:59;98984.10;;;0.36;100.00
49779;BME280;36217;60.232;24.776;2023-02-01T09:10:26;98985.48;;;0.51;100.00
49779;BME280;36217;60.232;24.776;2023-02-01T09:12:53;98986.22;;;0.03;100.00
49779;BME280;36217;60.232;24.776;2023-02-01T09:15:20;98990.27;;;0.58;100.00
49779;BME280;36217;60.232;24.776;2023-02-01T09:17:47;98995.93;;;0.35;100.00
49779;BME280;36217;60.232;24.776;2023-02-01T09:20:15;98995.97;;;0.44;100.00
49779;BME280;36217;60.232;24.776;2023-02-01T09:22:42;98996.24;;;0.62;100.00
49779;BME280;36217;60.232;24.776;2023-02-01T09:25:20;98991.97;;;0.39;100.00
49779;BME280;36217;60.232;24.776;2023-02-01T09:27:46;98993.52;;;0.65;100.00
49779;BME280;36217;60.232;24.776;2023-02-01T09:30:14;98994.68;;;0.25;100.00
49779;BME280;36217;60.232;24.776;2023-02-01T09:32:41;98995.64;;;0.47;100.00
49779;BME280;36217;60.232;24.776;2023-02-01T09:35:08;98999.22;;;0.68;100.00
49779;BME280;36217;60.232;24.776;2023-02-01T09:37:35;99000.76;;;0.76;100.00
49779;BME280;36217;60.232;24.776;2023-02-01T09:40:03;98999.42;;;0.75;100.00
49779;BME280;36217;60.232;24.776;2023-02-01T09:42:44;99000.22;;;0.80;100.00
49779;BME280;36217;60.232;24.776;2023-02-01T09:45:20;98997.91;;;0.37;100.00
49779;BME280;36217;60.232;24.776;2023-02-01T09:47:53;99001.07;;;0.79;100.00
49779;BME280;36217;60.232;24.776;2023-02-01T09:50:28;99005.00;;;0.45;100.00
49779;BME280;36217;60.232;24.776;2023-02-01T09:53:01;99007.28;;;1.02;100.00
49779;BME280;36217;60.232;24.776;2023-02-01T09:55:34;99008.84;;;0.72;100.00
49779;BME280;36217;60.232;24.776;2023-02-01T09:58:06;99014.81;;;0.97;100.00
49779;BME280;36217;60.232;24.776;2023-02-01T10:00:37;99013.70;;;0.72;100.00
49779;BME280;36217;60.232;24.776;2023-02-01T10:03:05;99009.89;;;0.82;100.00
49779;BME280;36217;60.232;24.776;2023-02-01T10:06:20;99006.64;;;0.78;100.00
49779;BME280;36217;60.232;24.776;2023-02-01T10:09:22;98999.69;;;0.88;100.00
49779;BME280;36217;60.232;24.776;2023-02-01T10:12:07;99005.12;;;1.19;100.00
49779;BME280;36217;60.232;24.776;2023-02-01T10:14:51;99006.92;;;1.32;100.00
49779;BME280;36217;60.232;24.776;2023-02-01T10:17:34;99011.44;;;1.49;100.00
49779;BME280;36217;60.232;24.776;2023-02-01T10:20:14;99014.35;;;1.13;100.00
49779;BME280;36217;60.232;24.776;2023-02-01T10:22:52;99017.09;;;1.35;100.00
49779;BME280;36217;60.232;24.776;2023-02-01T10:25:24;99015.76;;;1.04;100.00
49779;BME280;36217;60.232;24.776;2023-02-01T10:27:52;99011.71;;;1.01;100.00
49779;BME280;36217;60.232;24.776;2023-02-01T10:30:21;99011.80;;;0.90;100.00
49779;BME280;36217;60.232;24.776;2023-02-01T10:32:51;99012.67;;;1.01;100.00
49779;BME280;36217;60.232;24.776;2023-02-01T10:35:25;99013.73;;;1.32;100.00
49779;BME280;36217;60.232;24.776;2023-02-01T10:37:53;99012.38;;;1.36;100.00
49779;BME280;36217;60.232;24.776;2023-02-01T10:40:23;99014.78;;;1.13;100.00
49779;BME280;36217;60.232;24.776;2023-02-01T10:42:52;99015.90;;;1.11;100.00
49779;BME280;36217;60.232;24.776;2023-02-01T10:45:22;99016.26;;;1.17;100.00
49779;BME280;36217;60.232;24.776;2023-02-01T10:47:54;99016.66;;;1.33;100.00
49779;BME280;36217;60.232;24.776;2023-02-01T10:50:33;99018.79;;;1.12;100.00
49779;BME280;36217;60.232;24.776;2023-02-01T10:53:04;99018.36;;;1.11;100.00
49779;BME280;36217;60.232;24.776;2023-02-01T10:55:36;99017.33;;;1.16;100.00
49779;BME280;36217;60.232;24.776;2023-02-01T10:58:06;99018.20;;;1.13;100.00
49779;BME280;36217;60.232;24.776;2023-02-01T11:00:42;99017.71;;;1.65;100.00
49779;BME280;36217;60.232;24.776;2023-02-01T11:03:43;99019.38;;;1.37;100.00
49779;BME280;36217;60.232;24.776;2023-02-01T11:06:17;99021.12;;;1.44;100.00
49779;BME280;36217;60.232;24.776;2023-02-01T11:08:48;99022.31;;;1.11;100.00
49779;BME280;36217;60.232;24.776;2023-02-01T11:11:15;99023.90;;;1.16;100.00
49779;BME280;36217;60.232;24.776;2023-02-01T11:13:42;99026.88;;;1.20;100.00
49779;BME280;36217;60.232;24.776;2023-02-01T11:16:13;99023.39;;;1.09;100.00
49779;BME280;36217;60.232;24.776;2023-02-01T11:18:40;99027.08;;;1.07;100.00
49779;BME280;36217;60.232;24.776;2023-02-01T11:21:09;99024.06;;;1.16;100.00
49779;BME280;36217;60.232;24.776;2023-02-01T11:23:42;99023.27;;;1.14;100.00
49779;BME280;36217;60.232;24.776;2023-02-01T11:26:12;99025.62;;;1.13;100.00
49779;BME280;36217;60.232;24.776;2023-02-01T11:28:46;99027.20;;;1.46;100.00
49779;BME280;36217;60.232;24.776;2023-02-01T11:31:16;99029.72;;;1.18;100.00
49779;BME280;36217;60.232;24.776;2023-02-01T11:33:48;99032.59;;;1.21;100.00
49779;BME280;36217;60.232;24.776;2023-02-01T11:36:19;99033.57;;;1.14;100.00
49779;BME280;36217;60.232;24.776;2023-02-01T11:38:52;99030.32;;;1.33;100.00
49779;BME280;36217;60.232;24.776;2023-02-01T11:41:23;99028.92;;;1.19;100.00
49779;BME280;36217;60.232;24.776;2023-02-01T11:43:53;99029.71;;;1.21;100.00
49779;BME280;36217;60.232;24.776;2023-02-01T11:46:24;99029.57;;;1.14;100.00
49779;BME280;36217;60.232;24.776;2023-02-01T11:48:52;99028.16;;;1.22;100.00
49779;BME280;36217;60.232;24.776;2023-02-01T11:51:29;99023.95;;;1.19;100.00
49779;BME280;36217;60.232;24.776;2023-02-01T11:54:14;99021.88;;;1.33;100.00
49779;BME280;36217;60.232;24.776;2023-02-01T11:56:57;99023.14;;;1.20;100.00
49779;BME280;36217;60.232;24.776;2023-02-01T11:59:45;99024.37;;;1.20;100.00
49779;BME280;36217;60.232;24.776;2023-02-01T12:02:33;99024.20;;;1.24;100.00
49779;BME280;36217;60.232;24.776;2023-02-01T12:05:19;99016.33;;;1.31;100.00
49779;BME280;36217;60.232;24.776;2023-02-01T12:08:12;99015.85;;;1.30;100.00
49779;BME280;36217;60.232;24.776;2023-02-01T12:10:53;99018.41;;;1.08;100.00
49779;BME280;36217;60.232;24.776;2023-02-01T12:13:40;99022.12;;;1.24;100.00
49779;BME280;36217;60.232;24.776;2023-02-01T12:16:21;99024.83;;;1.26;100.00
49779;BME280;36217;60.232;24.776;2023-02-01T12:19:02;99022.16;;;1.27;100.00
49779;BME280;36217;60.232;24.776;2023-02-01T12:21:43;99025.34;;;1.17;100.00
49779;BME280;36217;60.232;24.776;2023-02-01T12:24:26;99025.45;;;1.17;100.00
49779;BME280;36217;60.232;24.776;2023-02-01T12:27:08;99027.06;;;1.15;100.00
49779;BME280;36217;60.232;24.776;2023-02-01T12:29:52;99033.51;;;1.18;100.00
49779;BME280;36217;60.232;24.776;2023-02-01T12:32:39;99038.06;;;1.42;100.00
49779;BME280;36217;60.232;24.776;2023-02-01T12:35:36;99042.98;;;1.11;100.00
49779;BME280;36217;60.232;24.776;2023-02-01T12:38:26;99049.70;;;1.14;100.00
49779;BME280;36217;60.232;24.776;2023-02-01T12:41:14;99049.38;;;1.16;100.00
49779;BME280;36217;60.232;24.776;2023-02-01T12:43:48;99054.13;;;1.15;100.00
49779;BME280;36217;60.232;24.776;2023-02-01T12:46:23;99055.54;;;1.08;100.00
49779;BME280;36217;60.232;24.776;2023-02-01T12:48:57;99057.63;;;1.04;100.00
49779;BME280;36217;60.232;24.776;2023-02-01T12:51:29;99060.02;;;1.09;100.00
49779;BME280;36217;60.232;24.776;2023-02-01T12:54:03;99060.45;;;1.08;100.00
49779;BME280;36217;60.232;24.776;2023-02-01T12:56:38;99062.85;;;1.09;100.00
49779;BME280;36217;60.232;24.776;2023-02-01T12:59:13;99063.20;;;0.98;100.00
49779;BME280;36217;60.232;24.776;2023-02-01T13:01:48;99067.37;;;0.94;100.00
49779;BME280;36217;60.232;24.776;2023-02-01T13:04:20;99068.05;;;1.02;100.00